sensor_id;sensor_type;location;lat;lon;timestamp;temperature;humidity
578;DHT22;275;48.492;9.214;2023-04-27T00:00:30;13.10;28.10
578;DHT22;275;48.492;9.214;2023-04-27T00:02:57;13.30;27.80
578;DHT22;275;48.492;9.214;2023-04-27T00:05:23;13.10;27.80
578;DHT22;275;48.492;9.214;2023-04-27T00:07:50;12.90;28.10
578;DHT22;275;48.492;9.214;2023-04-27T00:10:19;13.00;27.90
578;DHT22;275;48.492;9.214;2023-04-27T00:12:45;12.70;27.70
578;DHT22;275;48.492;9.214;2023-04-27T00:15:12;12.10;29.00
578;DHT22;275;48.492;9.214;2023-04-27T00:17:39;11.90;29.10
578;DHT22;275;48.492;9.214;2023-04-27T00:20:08;11.90;29.50
578;DHT22;275;48.492;9.214;2023-04-27T00:22:36;12.30;28.70
578;DHT22;275;48.492;9.214;2023-04-27T00:25:04;12.50;28.20
578;DHT22;275;48.492;9.214;2023-04-27T00:27:32;12.60;27.80
578;DHT22;275;48.492;9.214;2023-04-27T00:29:59;12.50;27.60
578;DHT22;275;48.492;9.214;2023-04-27T00:32:26;12.20;28.00
578;DHT22;275;48.492;9.214;2023-04-27T00:34:53;12.30;27.90
578;DHT22;275;48.492;9.214;2023-04-27T00:37:19;12.30;28.20
578;DHT22;275;48.492;9.214;2023-04-27T00:39:46;12.50;28.40
578;DHT22;275;48.492;9.214;2023-04-27T00:42:13;12.70;28.10
578;DHT22;275;48.492;9.214;2023-04-27T00:44:45;12.60;28.20
578;DHT22;275;48.492;9.214;2023-04-27T00:47:12;12.60;28.30
578;DHT22;275;48.492;9.214;2023-04-27T00:49:40;12.70;28.20
578;DHT22;275;48.492;9.214;2023-04-27T00:52:06;13.00;28.00
578;DHT22;275;48.492;9.214;2023-04-27T00:54:33;13.00;27.70
578;DHT22;275;48.492;9.214;2023-04-27T00:57:00;13.10;27.40
578;DHT22;275;48.492;9.214;2023-04-27T00:59:28;12.60;29.40
578;DHT22;275;48.492;9.214;2023-04-27T01:01:57;12.30;30.10
578;DHT22;275;48.492;9.214;2023-04-27T01:04:23;12.10;30.50
578;DHT22;275;48.492;9.214;2023-04-27T01:06:51;12.40;29.90
578;DHT22;275;48.492;9.214;2023-04-27T01:09:18;12.60;29.60
578;DHT22;275;48.492;9.214;2023-04-27T01:11:45;12.70;29.60
578;DHT22;275;48.492;9.214;2023-04-27T01:14:11;12.40;29.90
578;DHT22;275;48.492;9.214;2023-04-27T01:16:38;12.40;30.00
578;DHT22;275;48.492;9.214;2023-04-27T01:19:07;12.50;30.00
578;DHT22;275;48.492;9.214;2023-04-27T01:21:34;12.80;29.70
578;DHT22;275;48.492;9.214;2023-04-27T01:24:04;12.70;29.00
578;DHT22;275;48.492;9.214;2023-04-27T01:26:32;12.20;29.50
578;DHT22;275;48.492;9.214;2023-04-27T01:28:58;12.50;29.40
578;DHT22;275;48.492;9.214;2023-04-27T01:31:25;12.60;29.30
578;DHT22;275;48.492;9.214;2023-04-27T01:33:52;12.70;28.90
578;DHT22;275;48.492;9.214;2023-04-27T01:36:19;12.80;28.60
578;DHT22;275;48.492;9.214;2023-04-27T01:38:46;13.10;28.20
578;DHT22;275;48.492;9.214;2023-04-27T01:41:14;13.00;28.60
578;DHT22;275;48.492;9.214;2023-04-27T01:43:41;12.90;28.70
578;DHT22;275;48.492;9.214;2023-04-27T01:46:09;12.90;28.70
578;DHT22;275;48.492;9.214;2023-04-27T01:48:37;12.80;28.70
578;DHT22;275;48.492;9.214;2023-04-27T01:51:05;12.50;29.40
578;DHT22;275;48.492;9.214;2023-04-27T01:53:32;12.50;29.60
578;DHT22;275;48.492;9.214;2023-04-27T01:55:59;12.40;29.80
578;DHT22;275;48.492;9.214;2023-04-27T01:58:27;12.20;30.30
578;DHT22;275;48.492;9.214;2023-04-27T02:00:54;12.20;30.30
578;DHT22;275;48.492;9.214;2023-04-27T02:03:21;12.40;30.10
578;DHT22;275;48.492;9.214;2023-04-27T02:05:47;12.40;30.10
578;DHT22;275;48.492;9.214;2023-04-27T02:08:14;12.30;30.10
578;DHT22;275;48.492;9.214;2023-04-27T02:10:41;12.10;30.50
578;DHT22;275;48.492;9.214;2023-04-27T02:13:08;12.20;30.30
578;DHT22;275;48.492;9.214;2023-04-27T02:15:36;12.30;30.20
578;DHT22;275;48.492;9.214;2023-04-27T02:18:03;12.20;30.20
578;DHT22;275;48.492;9.214;2023-04-27T02:20:30;12.30;30.00
578;DHT22;275;48.492;9.214;2023-04-27T02:22:57;12.20;30.60
578;DHT22;275;48.492;9.214;2023-04-27T02:25:24;11.90;31.20
578;DHT22;275;48.492;9.214;2023-04-27T02:27:51;11.90;30.90
578;DHT22;275;48.492;9.214;2023-04-27T02:30:18;11.50;31.70
578;DHT22;275;48.492;9.214;2023-04-27T02:32:47;11.20;32.50
578;DHT22;275;48.492;9.214;2023-04-27T02:35:14;11.00;32.70
578;DHT22;275;48.492;9.214;2023-04-27T02:37:40;10.80;33.10
578;DHT22;275;48.492;9.214;2023-04-27T02:40:08;10.90;32.70
578;DHT22;275;48.492;9.214;2023-04-27T02:42:35;11.30;31.90
578;DHT22;275;48.492;9.214;2023-04-27T02:45:05;11.30;31.70
578;DHT22;275;48.492;9.214;2023-04-27T02:47:32;11.50;31.10
578;DHT22;275;48.492;9.214;2023-04-27T02:50:00;11.00;32.50
578;DHT22;275;48.492;9.214;2023-04-27T02:52:28;10.80;33.50
578;DHT22;275;48.492;9.214;2023-04-27T02:54:55;11.00;32.40
578;DHT22;275;48.492;9.214;2023-04-27T02:57:22;11.50;31.10
578;DHT22;275;48.492;9.214;2023-04-27T02:59:49;11.50;30.90
578;DHT22;275;48.492;9.214;2023-04-27T03:02:16;11.50;30.90
578;DHT22;275;48.492;9.214;2023-04-27T03:04:42;11.10;32.30
578;DHT22;275;48.492;9.214;2023-04-27T03:07:11;11.00;32.80
578;DHT22;275;48.492;9.214;2023-04-27T03:09:37;10.90;32.90
578;DHT22;275;48.492;9.214;2023-04-27T03:12:04;11.20;32.50
578;DHT22;275;48.492;9.214;2023-04-27T03:14:31;11.30;32.10
578;DHT22;275;48.492;9.214;2023-04-27T03:16:59;11.20;32.40
578;DHT22;275;48.492;9.214;2023-04-27T03:19:27;11.10;32.70
578;DHT22;275;48.492;9.214;2023-04-27T03:21:54;11.40;32.10
578;DHT22;275;48.492;9.214;2023-04-27T03:24:22;11.60;31.60
578;DHT22;275;48.492;9.214;2023-04-27T03:26:50;11.80;31.00
578;DHT22;275;48.492;9.214;2023-04-27T03:29:17;11.50;31.90
578;DHT22;275;48.492;9.214;2023-04-27T03:31:44;11.40;32.00
578;DHT22;275;48.492;9.214;2023-04-27T03:34:11;11.60;31.70
578;DHT22;275;48.492;9.214;2023-04-27T03:36:37;11.20;32.40
578;DHT22;275;48.492;9.214;2023-04-27T03:39:04;10.80;33.40
578;DHT22;275;48.492;9.214;2023-04-27T03:41:32;11.00;33.00
578;DHT22;275;48.492;9.214;2023-04-27T03:43:59;11.50;31.60
578;DHT22;275;48.492;9.214;2023-04-27T03:46:26;11.60;31.10
578;DHT22;275;48.492;9.214;2023-04-27T03:48:53;11.50;30.90
578;DHT22;275;48.492;9.214;2023-04-27T03:51:20;11.20;31.50
578;DHT22;275;48.492;9.214;2023-04-27T03:53:46;11.20;32.20
578;DHT22;275;48.492;9.214;2023-04-27T03:56:13;11.00;31.70
578;DHT22;275;48.492;9.214;2023-04-27T03:58:42;11.00;32.00
578;DHT22;275;48.492;9.214;2023-04-27T04:01:08;10.90;32.40
578;DHT22;275;48.492;9.214;2023-04-27T04:03:35;10.90;31.90
578;DHT22;275;48.492;9.214;2023-04-27T04:06:02;10.80;32.20
578;DHT22;275;48.492;9.214;2023-04-27T04:08:29;11.10;31.60
578;DHT22;275;48.492;9.214;2023-04-27T04:10:58;11.20;31.30
578;DHT22;275;48.492;9.214;2023-04-27T04:13:25;11.80;30.30
578;DHT22;275;48.492;9.214;2023-04-27T04:16:01;11.70;30.50
578;DHT22;275;48.492;9.214;2023-04-27T04:18:28;11.30;31.50
578;DHT22;275;48.492;9.214;2023-04-27T04:20:55;11.60;31.00
578;DHT22;275;48.492;9.214;2023-04-27T04:23:22;11.90;30.30
578;DHT22;275;48.492;9.214;2023-04-27T04:25:49;11.90;30.50
578;DHT22;275;48.492;9.214;2023-04-27T04:28:16;11.90;30.30
578;DHT22;275;48.492;9.214;2023-04-27T04:30:43;12.00;30.40
578;DHT22;275;48.492;9.214;2023-04-27T04:33:11;11.70;31.10
578;DHT22;275;48.492;9.214;2023-04-27T04:35:38;11.50;31.60
578;DHT22;275;48.492;9.214;2023-04-27T04:38:06;11.40;31.90
578;DHT22;275;48.492;9.214;2023-04-27T04:40:33;11.40;31.90
578;DHT22;275;48.492;9.214;2023-04-27T04:43:01;11.70;30.90
578;DHT22;275;48.492;9.214;2023-04-27T04:45:28;11.70;31.10
578;DHT22;275;48.492;9.214;2023-04-27T04:47:55;11.60;31.30
578;DHT22;275;48.492;9.214;2023-04-27T04:50:23;11.60;31.50
578;DHT22;275;48.492;9.214;2023-04-27T04:52:50;11.30;32.30
578;DHT22;275;48.492;9.214;2023-04-27T04:55:21;11.00;32.90
578;DHT22;275;48.492;9.214;2023-04-27T04:57:48;11.30;32.40
578;DHT22;275;48.492;9.214;2023-04-27T05:00:16;11.50;32.10
578;DHT22;275;48.492;9.214;2023-04-27T05:02:42;11.60;31.70
578;DHT22;275;48.492;9.214;2023-04-27T05:05:09;11.60;31.70
578;DHT22;275;48.492;9.214;2023-04-27T05:07:44;11.90;31.00
578;DHT22;275;48.492;9.214;2023-04-27T05:10:20;12.00;30.80
578;DHT22;275;48.492;9.214;2023-04-27T05:12:50;12.20;30.20
578;DHT22;275;48.492;9.214;2023-04-27T05:15:17;12.60;29.50
578;DHT22;275;48.492;9.214;2023-04-27T05:17:44;12.60;29.60
578;DHT22;275;48.492;9.214;2023-04-27T05:20:11;12.90;29.10
578;DHT22;275;48.492;9.214;2023-04-27T05:22:39;12.90;29.20
578;DHT22;275;48.492;9.214;2023-04-27T05:25:07;13.00;29.10
578;DHT22;275;48.492;9.214;2023-04-27T05:27:34;12.60;29.60
578;DHT22;275;48.492;9.214;2023-04-27T05:30:01;12.60;29.40
578;DHT22;275;48.492;9.214;2023-04-27T05:32:28;12.80;28.70
578;DHT22;275;48.492;9.214;2023-04-27T05:34:55;12.60;28.70
578;DHT22;275;48.492;9.214;2023-04-27T05:37:22;12.50;29.00
578;DHT22;275;48.492;9.214;2023-04-27T05:39:50;12.70;28.60
578;DHT22;275;48.492;9.214;2023-04-27T05:42:16;13.00;28.10
578;DHT22;275;48.492;9.214;2023-04-27T05:44:43;13.40;27.40
578;DHT22;275;48.492;9.214;2023-04-27T05:47:10;13.00;27.80
578;DHT22;275;48.492;9.214;2023-04-27T05:49:37;13.00;28.20
578;DHT22;275;48.492;9.214;2023-04-27T05:52:07;13.20;27.90
578;DHT22;275;48.492;9.214;2023-04-27T05:54:34;13.70;27.30
578;DHT22;275;48.492;9.214;2023-04-27T05:57:02;13.80;27.30
578;DHT22;275;48.492;9.214;2023-04-27T05:59:29;14.10;26.80
578;DHT22;275;48.492;9.214;2023-04-27T06:01:56;14.10;26.50
578;DHT22;275;48.492;9.214;2023-04-27T06:04:23;14.40;26.40
578;DHT22;275;48.492;9.214;2023-04-27T06:06:49;14.60;26.20
578;DHT22;275;48.492;9.214;2023-04-27T06:09:16;14.90;25.90
578;DHT22;275;48.492;9.214;2023-04-27T06:11:43;15.00;25.50
578;DHT22;275;48.492;9.214;2023-04-27T06:14:13;14.80;25.30
578;DHT22;275;48.492;9.214;2023-04-27T06:16:40;14.90;26.00
578;DHT22;275;48.492;9.214;2023-04-27T06:19:07;14.90;25.90
578;DHT22;275;48.492;9.214;2023-04-27T06:21:34;14.80;25.80
578;DHT22;275;48.492;9.214;2023-04-27T06:24:01;15.10;25.20
578;DHT22;275;48.492;9.214;2023-04-27T06:26:28;15.40;24.90
578;DHT22;275;48.492;9.214;2023-04-27T06:28:55;15.80;24.30
578;DHT22;275;48.492;9.214;2023-04-27T06:31:23;15.80;23.70
578;DHT22;275;48.492;9.214;2023-04-27T06:33:50;15.80;23.80
578;DHT22;275;48.492;9.214;2023-04-27T06:36:17;16.10;23.40
578;DHT22;275;48.492;9.214;2023-04-27T06:38:44;16.10;23.30
578;DHT22;275;48.492;9.214;2023-04-27T06:41:10;15.70;23.70
578;DHT22;275;48.492;9.214;2023-04-27T06:43:37;15.80;23.70
578;DHT22;275;48.492;9.214;2023-04-27T06:46:04;15.80;23.50
578;DHT22;275;48.492;9.214;2023-04-27T06:48:32;16.20;23.20
578;DHT22;275;48.492;9.214;2023-04-27T06:50:59;16.00;23.40
578;DHT22;275;48.492;9.214;2023-04-27T06:53:26;16.10;23.30
578;DHT22;275;48.492;9.214;2023-04-27T06:55:53;16.00;23.50
578;DHT22;275;48.492;9.214;2023-04-27T06:58:19;15.20;24.20
578;DHT22;275;48.492;9.214;2023-04-27T07:00:46;15.10;25.10
578;DHT22;275;48.492;9.214;2023-04-27T07:03:13;15.40;24.00
578;DHT22;275;48.492;9.214;2023-04-27T07:05:42;15.80;22.70
578;DHT22;275;48.492;9.214;2023-04-27T07:08:08;15.60;23.20
578;DHT22;275;48.492;9.214;2023-04-27T07:10:35;16.00;22.50
578;DHT22;275;48.492;9.214;2023-04-27T07:13:02;16.70;21.70
578;DHT22;275;48.492;9.214;2023-04-27T07:15:29;16.50;22.00
578;DHT22;275;48.492;9.214;2023-04-27T07:17:56;16.70;21.70
578;DHT22;275;48.492;9.214;2023-04-27T07:20:24;17.70;20.70
578;DHT22;275;48.492;9.214;2023-04-27T07:22:52;18.40;19.60
578;DHT22;275;48.492;9.214;2023-04-27T07:25:19;19.40;19.10
578;DHT22;275;48.492;9.214;2023-04-27T07:27:46;20.00;19.10
578;DHT22;275;48.492;9.214;2023-04-27T07:30:13;20.90;17.60
578;DHT22;275;48.492;9.214;2023-04-27T07:32:41;21.00;16.70
578;DHT22;275;48.492;9.214;2023-04-27T07:35:08;20.40;17.20
578;DHT22;275;48.492;9.214;2023-04-27T07:37:35;20.80;17.10
578;DHT22;275;48.492;9.214;2023-04-27T07:40:07;21.50;16.80
578;DHT22;275;48.492;9.214;2023-04-27T07:42:41;23.10;15.70
578;DHT22;275;48.492;9.214;2023-04-27T07:45:08;23.40;15.00
578;DHT22;275;48.492;9.214;2023-04-27T07:47:35;24.10;14.30
578;DHT22;275;48.492;9.214;2023-04-27T07:50:03;25.30;13.30
578;DHT22;275;48.492;9.214;2023-04-27T07:52:30;26.00;12.60
578;DHT22;275;48.492;9.214;2023-04-27T07:54:57;27.50;10.80
578;DHT22;275;48.492;9.214;2023-04-27T07:57:25;26.50;10.90
578;DHT22;275;48.492;9.214;2023-04-27T07:59:52;24.50;12.60
578;DHT22;275;48.492;9.214;2023-04-27T08:02:19;23.50;12.90
578;DHT22;275;48.492;9.214;2023-04-27T08:04:46;22.80;13.80
578;DHT22;275;48.492;9.214;2023-04-27T08:07:13;22.10;14.60
578;DHT22;275;48.492;9.214;2023-04-27T08:09:40;22.00;14.90
578;DHT22;275;48.492;9.214;2023-04-27T08:12:07;22.30;14.60
578;DHT22;275;48.492;9.214;2023-04-27T08:14:36;24.00;13.60
578;DHT22;275;48.492;9.214;2023-04-27T08:17:02;25.40;12.50
578;DHT22;275;48.492;9.214;2023-04-27T08:19:29;25.00;12.70
578;DHT22;275;48.492;9.214;2023-04-27T08:21:56;24.80;12.90
578;DHT22;275;48.492;9.214;2023-04-27T08:24:23;26.60;11.70
578;DHT22;275;48.492;9.214;2023-04-27T08:26:49;27.30;11.00
578;DHT22;275;48.492;9.214;2023-04-27T08:29:16;28.10;10.30
578;DHT22;275;48.492;9.214;2023-04-27T08:31:44;29.40;9.40
578;DHT22;275;48.492;9.214;2023-04-27T08:34:11;31.20;8.70
578;DHT22;275;48.492;9.214;2023-04-27T08:36:38;31.80;7.70
578;DHT22;275;48.492;9.214;2023-04-27T08:39:05;31.40;7.40
578;DHT22;275;48.492;9.214;2023-04-27T08:41:33;30.80;7.60
578;DHT22;275;48.492;9.214;2023-04-27T08:44:00;31.00;7.30
578;DHT22;275;48.492;9.214;2023-04-27T08:46:27;31.60;7.30
578;DHT22;275;48.492;9.214;2023-04-27T08:48:57;31.20;7.20
578;DHT22;275;48.492;9.214;2023-04-27T08:51:24;30.70;6.90
578;DHT22;275;48.492;9.214;2023-04-27T08:53:53;29.80;7.70
578;DHT22;275;48.492;9.214;2023-04-27T08:56:21;28.60;8.80
578;DHT22;275;48.492;9.214;2023-04-27T08:58:49;27.70;9.70
578;DHT22;275;48.492;9.214;2023-04-27T09:01:17;26.60;10.70
578;DHT22;275;48.492;9.214;2023-04-27T09:03:44;26.20;11.10
578;DHT22;275;48.492;9.214;2023-04-27T09:06:13;26.50;10.30
578;DHT22;275;48.492;9.214;2023-04-27T09:08:41;25.90;11.30
578;DHT22;275;48.492;9.214;2023-04-27T09:11:08;26.30;10.60
578;DHT22;275;48.492;9.214;2023-04-27T09:13:35;25.10;11.30
578;DHT22;275;48.492;9.214;2023-04-27T09:16:02;24.90;11.70
578;DHT22;275;48.492;9.214;2023-04-27T09:18:30;26.20;10.40
578;DHT22;275;48.492;9.214;2023-04-27T09:20:59;25.60;10.70
578;DHT22;275;48.492;9.214;2023-04-27T09:23:31;24.70;11.90
578;DHT22;275;48.492;9.214;2023-04-27T09:25:59;25.00;10.30
578;DHT22;275;48.492;9.214;2023-04-27T09:28:27;24.70;9.70
578;DHT22;275;48.492;9.214;2023-04-27T09:30:56;24.90;10.10
578;DHT22;275;48.492;9.214;2023-04-27T09:33:24;25.00;10.20
578;DHT22;275;48.492;9.214;2023-04-27T09:35:51;25.10;10.40
578;DHT22;275;48.492;9.214;2023-04-27T09:38:19;23.70;11.90
578;DHT22;275;48.492;9.214;2023-04-27T09:40:48;24.00;12.50
578;DHT22;275;48.492;9.214;2023-04-27T09:43:15;22.70;13.60
578;DHT22;275;48.492;9.214;2023-04-27T09:45:42;21.60;15.10
578;DHT22;275;48.492;9.214;2023-04-27T09:48:10;24.30;13.10
578;DHT22;275;48.492;9.214;2023-04-27T09:50:39;25.60;11.10
578;DHT22;275;48.492;9.214;2023-04-27T09:53:08;24.00;12.70
578;DHT22;275;48.492;9.214;2023-04-27T09:55:39;23.60;13.30
578;DHT22;275;48.492;9.214;2023-04-27T10:01:26;26.30;10.60
578;DHT22;275;48.492;9.214;2023-04-27T10:04:07;27.30;9.90
578;DHT22;275;48.492;9.214;2023-04-27T10:06:57;29.00;8.10
578;DHT22;275;48.492;9.214;2023-04-27T10:09:25;30.80;6.90
578;DHT22;275;48.492;9.214;2023-04-27T10:11:54;32.00;5.60
578;DHT22;275;48.492;9.214;2023-04-27T10:14:22;31.70;5.50
578;DHT22;275;48.492;9.214;2023-04-27T10:16:51;32.30;5.20
578;DHT22;275;48.492;9.214;2023-04-27T10:19:19;32.70;4.70
578;DHT22;275;48.492;9.214;2023-04-27T10:21:53;33.30;3.70
578;DHT22;275;48.492;9.214;2023-04-27T10:24:32;31.70;4.50
578;DHT22;275;48.492;9.214;2023-04-27T10:27:01;32.80;4.10
578;DHT22;275;48.492;9.214;2023-04-27T10:29:34;33.80;3.10
578;DHT22;275;48.492;9.214;2023-04-27T10:32:07;34.60;2.50
578;DHT22;275;48.492;9.214;2023-04-27T10:34:36;34.20;2.40
578;DHT22;275;48.492;9.214;2023-04-27T10:37:04;35.30;2.00
578;DHT22;275;48.492;9.214;2023-04-27T10:39:34;34.90;2.50
578;DHT22;275;48.492;9.214;2023-04-27T10:42:02;35.10;2.30
578;DHT22;275;48.492;9.214;2023-04-27T10:44:31;36.40;1.20
578;DHT22;275;48.492;9.214;2023-04-27T10:46:59;35.60;1.50
578;DHT22;275;48.492;9.214;2023-04-27T10:49:28;34.00;2.50
578;DHT22;275;48.492;9.214;2023-04-27T10:51:57;30.80;4.50
578;DHT22;275;48.492;9.214;2023-04-27T10:54:26;31.50;4.10
578;DHT22;275;48.492;9.214;2023-04-27T10:56:53;30.40;4.90
578;DHT22;275;48.492;9.214;2023-04-27T10:59:20;29.70;5.40
578;DHT22;275;48.492;9.214;2023-04-27T11:01:48;29.80;5.30
578;DHT22;275;48.492;9.214;2023-04-27T11:04:15;28.60;6.80
578;DHT22;275;48.492;9.214;2023-04-27T11:06:45;27.10;8.20
578;DHT22;275;48.492;9.214;2023-04-27T11:09:12;27.60;7.30
578;DHT22;275;48.492;9.214;2023-04-27T11:11:43;25.80;9.50
578;DHT22;275;48.492;9.214;2023-04-27T11:14:14;24.70;10.80
578;DHT22;275;48.492;9.214;2023-04-27T11:16:45;27.60;8.50
578;DHT22;275;48.492;9.214;2023-04-27T11:19:13;28.90;7.00
578;DHT22;275;48.492;9.214;2023-04-27T11:21:40;28.80;6.90
578;DHT22;275;48.492;9.214;2023-04-27T11:24:08;29.40;6.90
578;DHT22;275;48.492;9.214;2023-04-27T11:26:35;29.00;7.10
578;DHT22;275;48.492;9.214;2023-04-27T11:29:03;28.60;7.40
578;DHT22;275;48.492;9.214;2023-04-27T11:31:41;27.30;8.50
578;DHT22;275;48.492;9.214;2023-04-27T11:34:15;25.90;9.90
578;DHT22;275;48.492;9.214;2023-04-27T11:36:41;23.50;12.10
578;DHT22;275;48.492;9.214;2023-04-27T11:39:15;21.50;14.70
578;DHT22;275;48.492;9.214;2023-04-27T11:41:48;22.00;14.20
578;DHT22;275;48.492;9.214;2023-04-27T11:44:15;22.40;14.00
578;DHT22;275;48.492;9.214;2023-04-27T11:46:43;21.40;14.80
578;DHT22;275;48.492;9.214;2023-04-27T11:49:11;21.50;14.90
578;DHT22;275;48.492;9.214;2023-04-27T11:51:39;21.40;14.00
578;DHT22;275;48.492;9.214;2023-04-27T11:54:10;23.00;12.60
578;DHT22;275;48.492;9.214;2023-04-27T11:56:39;23.60;12.30
578;DHT22;275;48.492;9.214;2023-04-27T11:59:17;23.40;12.50
578;DHT22;275;48.492;9.214;2023-04-27T12:01:44;23.20;12.70
578;DHT22;275;48.492;9.214;2023-04-27T12:04:11;22.90;13.70
578;DHT22;275;48.492;9.214;2023-04-27T12:06:38;22.60;13.90
578;DHT22;275;48.492;9.214;2023-04-27T12:09:05;21.20;13.20
578;DHT22;275;48.492;9.214;2023-04-27T12:11:33;20.50;13.60
578;DHT22;275;48.492;9.214;2023-04-27T12:14:01;22.30;12.90
578;DHT22;275;48.492;9.214;2023-04-27T12:16:28;25.50;10.30
578;DHT22;275;48.492;9.214;2023-04-27T12:18:54;27.00;8.60
578;DHT22;275;48.492;9.214;2023-04-27T12:21:21;29.00;7.10
578;DHT22;275;48.492;9.214;2023-04-27T12:23:48;29.70;6.40
578;DHT22;275;48.492;9.214;2023-04-27T12:26:15;28.50;6.40
578;DHT22;275;48.492;9.214;2023-04-27T12:28:43;27.20;7.90
578;DHT22;275;48.492;9.214;2023-04-27T12:31:13;26.70;8.40
578;DHT22;275;48.492;9.214;2023-04-27T12:33:41;25.60;9.10
578;DHT22;275;48.492;9.214;2023-04-27T12:36:07;25.20;9.70
578;DHT22;275;48.492;9.214;2023-04-27T12:38:34;25.10;9.90
578;DHT22;275;48.492;9.214;2023-04-27T12:41:01;23.70;10.90
578;DHT22;275;48.492;9.214;2023-04-27T12:43:28;23.60;11.60
578;DHT22;275;48.492;9.214;2023-04-27T12:45:56;22.90;12.10
578;DHT22;275;48.492;9.214;2023-04-27T12:48:23;23.10;12.50
578;DHT22;275;48.492;9.214;2023-04-27T12:50:50;23.60;12.00
578;DHT22;275;48.492;9.214;2023-04-27T12:53:17;22.30;13.80
578;DHT22;275;48.492;9.214;2023-04-27T12:55:46;21.80;14.00
578;DHT22;275;48.492;9.214;2023-04-27T12:58:13;22.50;13.50
578;DHT22;275;48.492;9.214;2023-04-27T13:00:40;20.70;15.30
578;DHT22;275;48.492;9.214;2023-04-27T13:03:08;20.80;15.40
578;DHT22;275;48.492;9.214;2023-04-27T13:05:35;22.20;14.50
578;DHT22;275;48.492;9.214;2023-04-27T13:08:02;22.50;13.60
578;DHT22;275;48.492;9.214;2023-04-27T13:10:30;21.30;15.10
578;DHT22;275;48.492;9.214;2023-04-27T13:12:57;22.40;14.70
578;DHT22;275;48.492;9.214;2023-04-27T13:15:25;22.40;14.40
578;DHT22;275;48.492;9.214;2023-04-27T13:17:52;22.40;14.70
578;DHT22;275;48.492;9.214;2023-04-27T13:20:22;21.90;14.70
578;DHT22;275;48.492;9.214;2023-04-27T13:22:49;22.30;14.70
578;DHT22;275;48.492;9.214;2023-04-27T13:25:16;22.30;14.60
578;DHT22;275;48.492;9.214;2023-04-27T13:27:44;22.70;14.20
578;DHT22;275;48.492;9.214;2023-04-27T13:30:11;22.40;14.30
578;DHT22;275;48.492;9.214;2023-04-27T13:32:38;22.60;14.60
578;DHT22;275;48.492;9.214;2023-04-27T13:35:06;22.80;13.90
578;DHT22;275;48.492;9.214;2023-04-27T13:37:34;23.10;13.60
578;DHT22;275;48.492;9.214;2023-04-27T13:40:01;22.50;13.70
578;DHT22;275;48.492;9.214;2023-04-27T13:42:29;22.90;13.90
578;DHT22;275;48.492;9.214;2023-04-27T13:44:56;23.70;13.10
578;DHT22;275;48.492;9.214;2023-04-27T13:47:23;23.90;13.10
578;DHT22;275;48.492;9.214;2023-04-27T13:49:50;23.80;13.20
578;DHT22;275;48.492;9.214;2023-04-27T13:52:17;23.90;13.20
578;DHT22;275;48.492;9.214;2023-04-27T13:54:45;22.70;14.60
578;DHT22;275;48.492;9.214;2023-04-27T13:57:12;22.30;15.10
578;DHT22;275;48.492;9.214;2023-04-27T13:59:39;22.90;15.20
578;DHT22;275;48.492;9.214;2023-04-27T14:02:06;23.30;14.10
578;DHT22;275;48.492;9.214;2023-04-27T14:04:33;24.10;13.60
578;DHT22;275;48.492;9.214;2023-04-27T14:07:00;23.80;13.00
578;DHT22;275;48.492;9.214;2023-04-27T14:09:27;22.90;14.00
578;DHT22;275;48.492;9.214;2023-04-27T14:11:55;21.90;15.50
578;DHT22;275;48.492;9.214;2023-04-27T14:14:22;21.60;15.90
578;DHT22;275;48.492;9.214;2023-04-27T14:16:49;21.90;15.60
578;DHT22;275;48.492;9.214;2023-04-27T14:19:16;21.50;15.60
578;DHT22;275;48.492;9.214;2023-04-27T14:21:45;22.00;15.50
578;DHT22;275;48.492;9.214;2023-04-27T14:24:12;22.10;15.10
578;DHT22;275;48.492;9.214;2023-04-27T14:26:39;22.80;14.90
578;DHT22;275;48.492;9.214;2023-04-27T14:29:09;22.60;15.20
578;DHT22;275;48.492;9.214;2023-04-27T14:31:36;22.80;14.90
578;DHT22;275;48.492;9.214;2023-04-27T14:34:03;22.70;15.00
578;DHT22;275;48.492;9.214;2023-04-27T14:36:30;22.40;15.00
578;DHT22;275;48.492;9.214;2023-04-27T14:38:57;22.40;15.00
578;DHT22;275;48.492;9.214;2023-04-27T14:41:24;22.20;14.90
578;DHT22;275;48.492;9.214;2023-04-27T14:43:55;22.70;14.60
578;DHT22;275;48.492;9.214;2023-04-27T14:46:23;22.80;14.40
578;DHT22;275;48.492;9.214;2023-04-27T14:48:50;23.40;14.00
578;DHT22;275;48.492;9.214;2023-04-27T14:51:17;23.50;13.80
578;DHT22;275;48.492;9.214;2023-04-27T14:53:44;23.70;14.10
578;DHT22;275;48.492;9.214;2023-04-27T14:56:11;22.40;15.00
578;DHT22;275;48.492;9.214;2023-04-27T14:58:38;20.90;16.30
578;DHT22;275;48.492;9.214;2023-04-27T15:01:06;20.60;17.10
578;DHT22;275;48.492;9.214;2023-04-27T15:03:34;20.50;17.30
578;DHT22;275;48.492;9.214;2023-04-27T15:06:01;21.50;16.70
578;DHT22;275;48.492;9.214;2023-04-27T15:08:29;22.20;16.50
578;DHT22;275;48.492;9.214;2023-04-27T15:10:56;22.80;15.40
578;DHT22;275;48.492;9.214;2023-04-27T15:13:24;23.00;15.20
578;DHT22;275;48.492;9.214;2023-04-27T15:15:53;22.10;15.80
578;DHT22;275;48.492;9.214;2023-04-27T15:18:20;22.00;15.80
578;DHT22;275;48.492;9.214;2023-04-27T15:20:51;22.60;15.30
578;DHT22;275;48.492;9.214;2023-04-27T15:23:18;23.70;14.40
578;DHT22;275;48.492;9.214;2023-04-27T15:25:45;24.40;13.70
578;DHT22;275;48.492;9.214;2023-04-27T15:28:12;24.10;14.30
578;DHT22;275;48.492;9.214;2023-04-27T15:30:39;23.70;14.60
578;DHT22;275;48.492;9.214;2023-04-27T15:33:06;23.80;14.70
578;DHT22;275;48.492;9.214;2023-04-27T15:35:33;23.50;15.00
578;DHT22;275;48.492;9.214;2023-04-27T15:38:06;23.30;14.80
578;DHT22;275;48.492;9.214;2023-04-27T15:40:35;23.20;14.80
578;DHT22;275;48.492;9.214;2023-04-27T15:43:01;23.00;15.00
578;DHT22;275;48.492;9.214;2023-04-27T15:45:31;22.60;15.60
578;DHT22;275;48.492;9.214;2023-04-27T15:48:00;22.70;15.80
578;DHT22;275;48.492;9.214;2023-04-27T15:50:27;22.20;16.00
578;DHT22;275;48.492;9.214;2023-04-27T15:52:53;21.90;16.30
578;DHT22;275;48.492;9.214;2023-04-27T15:55:22;21.20;17.30
578;DHT22;275;48.492;9.214;2023-04-27T15:57:49;21.20;17.00
578;DHT22;275;48.492;9.214;2023-04-27T16:00:16;21.50;16.70
578;DHT22;275;48.492;9.214;2023-04-27T16:02:46;21.80;16.40
578;DHT22;275;48.492;9.214;2023-04-27T16:05:13;22.10;16.30
578;DHT22;275;48.492;9.214;2023-04-27T16:07:42;22.40;16.20
578;DHT22;275;48.492;9.214;2023-04-27T16:10:09;22.50;15.90
578;DHT22;275;48.492;9.214;2023-04-27T16:12:37;22.60;15.90
578;DHT22;275;48.492;9.214;2023-04-27T16:15:05;22.50;15.70
578;DHT22;275;48.492;9.214;2023-04-27T16:17:33;22.60;15.70
578;DHT22;275;48.492;9.214;2023-04-27T16:20:01;22.30;15.90
578;DHT22;275;48.492;9.214;2023-04-27T16:22:31;21.60;16.70
578;DHT22;275;48.492;9.214;2023-04-27T16:24:57;21.40;17.00
578;DHT22;275;48.492;9.214;2023-04-27T16:27:24;21.00;17.70
578;DHT22;275;48.492;9.214;2023-04-27T16:29:53;21.40;17.20
578;DHT22;275;48.492;9.214;2023-04-27T16:32:19;21.50;17.20
578;DHT22;275;48.492;9.214;2023-04-27T16:34:46;21.90;17.20
578;DHT22;275;48.492;9.214;2023-04-27T16:37:13;22.40;16.30
578;DHT22;275;48.492;9.214;2023-04-27T16:39:40;22.40;15.90
578;DHT22;275;48.492;9.214;2023-04-27T16:42:07;22.10;16.40